Time;durP1;ratioP1;P1;durP2;ratioP2;P2;SDS_P1;SDS_P2;PMS_P1;PMS_P2;Temp;Humidity;BMP_temperature;BMP_pressure;BME280_temperature;BME280_humidity;BME280_pressure;Samples;Min_cycle;Max_cycle;Signal;HPM_P1;HPM_P2
2023/08/25 00:01:18;;;;;;;14.30;13.80;;;23.30;1.00;;;;;;5083361;28;20825;-85
2023/08/25 00:03:50;;;;;;;15.30;14.80;;;23.30;1.00;;;;;;5087989;28;20457;-87
2023/08/25 00:06:23;;;;;;;14.95;14.27;;;23.30;1.00;;;;;;5080437;28;20460;-86
2023/08/25 00:08:56;;;;;;;14.20;13.80;;;23.30;1.00;;;;;;5085853;28;20235;-85
2023/08/25 00:11:27;;;;;;;14.17;13.67;;;23.30;1.00;;;;;;5079124;28;20957;-85
2023/08/25 00:13:58;;;;;;;14.80;14.20;;;23.30;1.00;;;;;;5080140;28;20445;-87
2023/08/25 00:16:27;;;;;;;14.40;13.90;;;23.30;1.00;;;;;;5078824;28;20489;-86
2023/08/25 00:18:59;;;;;;;13.93;13.53;;;23.40;1.00;;;;;;5080981;28;20199;-85
2023/08/25 00:21:34;;;;;;;14.07;13.63;;;23.40;99.90;;;;;;5082295;28;20449;-84
2023/08/25 00:24:03;;;;;;;14.70;14.10;;;23.30;1.00;;;;;;5079199;28;20453;-89
2023/08/25 00:26:36;;;;;;;14.77;14.27;;;23.30;1.00;;;;;;5082417;28;20512;-85
2023/08/25 00:29:05;;;;;;;14.10;13.70;;;23.30;1.00;;;;;;5080100;28;20251;-85
2023/08/25 00:31:40;;;;;;;14.60;14.10;;;23.30;99.90;;;;;;5077617;28;20449;-86
2023/08/25 00:34:08;;;;;;;14.20;13.80;;;23.30;1.00;;;;;;5076747;28;20459;-88
2023/08/25 00:36:42;;;;;;;14.40;13.80;;;23.30;99.90;;;;;;5081985;28;20515;-86
2023/08/25 00:39:11;;;;;;;13.93;13.53;;;23.30;1.00;;;;;;5087262;28;21061;-85
2023/08/25 00:41:44;;;;;;;14.20;13.70;;;23.30;99.90;;;;;;5075068;28;20454;-89
2023/08/25 00:44:20;;;;;;;14.40;13.80;;;23.20;1.00;;;;;;5081576;28;20971;-90
2023/08/25 00:46:52;;;;;;;14.67;13.87;;;23.20;1.00;;;;;;5082461;28;20453;-85
2023/08/25 00:49:23;;;;;;;14.50;14.00;;;23.10;1.00;;;;;;5078861;28;20479;-85
2023/08/25 00:51:56;;;;;;;13.90;13.47;;;23.10;1.00;;;;;;5075647;28;20458;-85
2023/08/25 00:54:28;;;;;;;13.80;13.40;;;23.20;1.00;;;;;;5082833;28;20454;-88
2023/08/25 00:57:01;;;;;;;14.97;14.30;;;23.10;1.00;;;;;;5083243;28;20481;-85
2023/08/25 00:59:32;;;;;;;14.43;13.70;;;23.20;1.00;;;;;;5087210;28;20474;-86
2023/08/25 01:02:04;;;;;;;14.88;14.38;;;23.20;1.00;;;;;;5074278;28;20958;-85
2023/08/25 01:04:38;;;;;;;14.30;13.80;;;23.10;1.00;;;;;;5080901;28;20204;-85
2023/08/25 01:07:10;;;;;;;14.93;14.23;;;23.20;1.00;;;;;;5083902;28;20459;-85
2023/08/25 01:09:41;;;;;;;14.50;13.90;;;23.20;1.00;;;;;;5093431;28;20904;-85
2023/08/25 01:12:27;;;;;;;14.70;14.10;;;23.20;1.00;;;;;;5081190;28;20294;-86
2023/08/25 01:15:04;;;;;;;14.30;13.80;;;23.10;1.00;;;;;;5080735;28;20455;-86
2023/08/25 01:17:41;;;;;;;14.27;13.70;;;23.20;1.00;;;;;;5075573;28;20196;-86
2023/08/25 01:20:14;;;;;;;14.50;14.00;;;23.20;1.00;;;;;;5081263;28;20473;-85
2023/08/25 01:23:07;;;;;;;13.90;13.40;;;23.20;1.00;;;;;;5093057;28;20223;-85
2023/08/25 01:25:39;;;;;;;14.20;13.70;;;23.30;1.00;;;;;;5081101;28;20962;-85
2023/08/25 01:28:08;;;;;;;13.87;13.30;;;23.30;1.00;;;;;;5082888;28;20450;-85
2023/08/25 01:30:39;;;;;;;14.30;13.80;;;23.30;1.00;;;;;;5080754;28;20474;-85
2023/08/25 01:33:19;;;;;;;13.97;13.40;;;23.20;1.00;;;;;;5081604;28;20536;-86
2023/08/25 01:35:56;;;;;;;15.10;13.90;;;23.20;1.00;;;;;;5077198;28;20484;-87
2023/08/25 01:38:30;;;;;;;14.03;13.63;;;23.20;1.00;;;;;;5081931;28;20442;-85
2023/08/25 01:41:07;;;;;;;14.10;13.60;;;23.20;1.00;;;;;;5075959;28;20476;-85
2023/08/25 01:43:39;;;;;;;14.60;13.90;;;23.20;1.00;;;;;;5078661;28;20441;-86
2023/08/25 01:46:11;;;;;;;14.40;13.90;;;23.20;1.00;;;;;;5081556;28;20442;-85
2023/08/25 01:48:43;;;;;;;14.40;13.80;;;23.20;1.00;;;;;;5079295;28;20977;-85
2023/08/25 01:51:12;;;;;;;14.00;13.50;;;23.20;1.00;;;;;;5084584;28;20470;-87
2023/08/25 01:53:49;;;;;;;13.90;13.40;;;23.10;1.00;;;;;;5076468;28;20450;-84
2023/08/25 01:56:25;;;;;;;14.33;13.83;;;23.10;1.00;;;;;;5077353;28;20466;-86
2023/08/25 01:58:57;;;;;;;14.73;14.13;;;23.10;1.00;;;;;;5077034;28;20493;-86
2023/08/25 02:01:28;;;;;;;14.13;13.50;;;23.10;1.00;;;;;;5076720;28;20762;-85
2023/08/25 02:04:03;;;;;;;14.80;14.10;;;23.00;1.00;;;;;;5075512;28;20445;-85
2023/08/25 02:06:35;;;;;;;14.33;13.83;;;23.10;1.00;;;;;;5082609;28;20825;-86
2023/08/25 02:09:11;;;;;;;14.17;13.77;;;23.00;1.00;;;;;;5080170;28;20494;-85
2023/08/25 02:11:41;;;;;;;14.50;14.00;;;23.00;1.00;;;;;;5077106;28;20442;-87
2023/08/25 02:14:12;;;;;;;14.07;13.50;;;23.00;1.00;;;;;;5082179;28;20942;-86
2023/08/25 02:16:42;;;;;;;14.63;14.03;;;23.00;99.90;;;;;;5076259;28;20963;-86
2023/08/25 02:19:11;;;;;;;14.63;13.93;;;22.90;99.90;;;;;;5079118;28;20478;-85
2023/08/25 02:21:42;;;;;;;14.63;14.13;;;22.90;99.90;;;;;;5077107;28;20650;-85
2023/08/25 02:24:14;;;;;;;14.80;14.30;;;22.90;99.90;;;;;;5079197;28;20450;-88
2023/08/25 02:26:49;;;;;;;14.20;13.50;;;22.90;36.00;;;;;;5078816;28;20461;-86
2023/08/25 02:29:18;;;;;;;14.57;14.07;;;23.00;99.90;;;;;;5077335;28;20490;-87
2023/08/25 02:31:49;;;;;;;14.77;14.17;;;23.00;1.00;;;;;;5077632;28;20228;-86
2023/08/25 02:34:22;;;;;;;14.60;14.00;;;23.00;99.90;;;;;;5075859;28;20457;-85
2023/08/25 02:36:53;;;;;;;14.83;14.13;;;23.00;99.90;;;;;;5076387;28;20445;-86
2023/08/25 02:39:27;;;;;;;14.30;13.90;;;23.00;99.90;;;;;;5078217;28;21045;-86
2023/08/25 02:41:58;;;;;;;14.53;14.10;;;22.90;99.90;;;;;;5077043;28;20454;-88
2023/08/25 02:44:30;;;;;;;14.20;13.63;;;22.90;99.90;;;;;;5078112;28;20458;-86
2023/08/25 02:47:08;;;;;;;14.87;14.00;;;22.80;1.00;;;;;;5075562;28;20453;-86
2023/08/25 02:49:38;;;;;;;14.80;14.20;;;22.80;1.00;;;;;;5077970;28;20488;-88
2023/08/25 02:52:12;;;;;;;14.57;14.17;;;22.70;1.00;;;;;;5077335;28;20207;-87
2023/08/25 02:54:48;;;;;;;14.80;14.20;;;22.70;1.00;;;;;;5080972;28;20490;-87
2023/08/25 02:57:18;;;;;;;15.10;14.40;;;22.80;1.00;;;;;;5080160;28;20197;-85
2023/08/25 02:59:47;;;;;;;14.40;13.90;;;22.70;1.00;;;;;;5075970;28;20471;-87
2023/08/25 03:02:17;;;;;;;14.80;14.20;;;22.70;99.90;;;;;;5077457;28;20872;-87
2023/08/25 03:04:53;;;;;;;14.80;14.20;;;22.80;10.80;;;;;;5078111;28;21224;-86
2023/08/25 03:07:28;;;;;;;13.87;13.37;;;22.70;1.00;;;;;;5078140;28;20943;-87
2023/08/25 03:10:00;;;;;;;14.93;14.37;;;22.80;33.30;;;;;;5078041;28;20696;-89
2023/08/25 03:12:37;;;;;;;14.73;14.10;;;22.80;1.00;;;;;;5085706;28;20472;-85
2023/08/25 03:15:08;;;;;;;15.00;14.40;;;22.80;1.00;;;;;;5079935;28;20458;-86
2023/08/25 03:17:41;;;;;;;15.63;15.03;;;22.80;1.00;;;;;;5077933;28;20453;-86
2023/08/25 03:20:13;;;;;;;14.93;14.33;;;22.80;1.00;;;;;;5080675;28;20478;-87
2023/08/25 03:22:48;;;;;;;15.70;15.10;;;22.80;1.00;;;;;;5081965;28;20453;-86
2023/08/25 03:25:19;;;;;;;15.10;14.60;;;22.80;1.00;;;;;;5077563;28;20467;-85
2023/08/25 03:27:49;;;;;;;15.40;14.80;;;22.80;1.00;;;;;;5073993;28;20560;-87
2023/08/25 03:30:21;;;;;;;15.77;14.90;;;22.80;1.00;;;;;;5076899;28;20330;-85
2023/08/25 03:32:59;;;;;;;14.83;14.33;;;22.80;1.00;;;;;;5078919;28;20750;-86
2023/08/25 03:35:33;;;;;;;15.27;14.50;;;22.80;1.00;;;;;;5083599;28;20455;-86
2023/08/25 03:38:06;;;;;;;16.00;15.40;;;22.80;1.00;;;;;;5079409;28;20458;-86
2023/08/25 03:40:38;;;;;;;15.13;14.60;;;22.80;1.00;;;;;;5081070;28;20548;-86
2023/08/25 03:43:11;;;;;;;14.93;14.33;;;22.80;1.00;;;;;;5083494;28;20571;-85
2023/08/25 03:45:42;;;;;;;16.43;15.17;;;22.80;1.00;;;;;;5079100;28;20484;-86
2023/08/25 03:48:19;;;;;;;15.60;14.90;;;22.80;1.00;;;;;;5083732;28;20941;-87
2023/08/25 03:50:51;;;;;;;14.83;14.23;;;22.80;1.00;;;;;;5083446;28;20480;-87
2023/08/25 03:53:27;;;;;;;14.98;14.38;;;22.80;1.00;;;;;;5083208;28;20443;-85
2023/08/25 03:56:01;;;;;;;14.77;14.27;;;22.80;1.00;;;;;;5080644;28;20223;-86
2023/08/25 03:58:35;;;;;;;15.27;14.57;;;22.80;1.00;;;;;;5078629;28;20462;-84
2023/08/25 04:01:06;;;;;;;15.10;14.60;;;22.80;1.00;;;;;;5081837;28;20461;-86
2023/08/25 04:03:35;;;;;;;15.10;14.50;;;22.90;1.00;;;;;;5082583;28;20970;-87
2023/08/25 04:06:14;;;;;;;14.65;14.15;;;22.90;1.00;;;;;;5081728;28;21027;-85
2023/08/25 04:08:48;;;;;;;15.13;14.53;;;22.80;1.00;;;;;;5075631;28;20206;-89
2023/08/25 04:11:21;;;;;;;15.50;14.90;;;22.80;1.00;;;;;;5083639;28;20854;-86
2023/08/25 04:13:51;;;;;;;15.47;14.80;;;22.80;1.00;;;;;;5082988;28;20532;-86
2023/08/25 04:16:27;;;;;;;15.57;14.90;;;22.80;1.00;;;;;;5082862;28;20536;-87
2023/08/25 04:19:00;;;;;;;15.67;15.07;;;22.80;1.00;;;;;;5079881;28;20523;-86
2023/08/25 04:21:35;;;;;;;15.40;14.90;;;22.70;1.00;;;;;;5078912;28;20451;-88
2023/08/25 04:24:06;;;;;;;15.77;15.17;;;22.70;1.00;;;;;;5079076;28;20457;-86
2023/08/25 04:26:37;;;;;;;16.20;15.60;;;22.70;1.00;;;;;;5091738;28;20494;-85
2023/08/25 04:29:09;;;;;;;15.57;14.90;;;22.60;1.00;;;;;;5079393;28;20446;-88
2023/08/25 04:31:38;;;;;;;15.90;15.20;;;22.70;1.00;;;;;;5082140;28;20471;-86
2023/08/25 04:34:09;;;;;;;16.67;15.80;;;22.70;1.00;;;;;;5082567;28;20866;-85
2023/08/25 04:36:40;;;;;;;15.97;15.07;;;22.60;1.00;;;;;;5077177;28;20457;-86
2023/08/25 04:39:11;;;;;;;15.93;15.33;;;22.60;1.00;;;;;;5080087;28;21023;-86
2023/08/25 04:41:46;;;;;;;15.40;14.90;;;22.60;1.00;;;;;;5081583;28;20445;-86
2023/08/25 04:44:22;;;;;;;16.83;16.00;;;22.60;1.00;;;;;;5081097;28;20444;-86
2023/08/25 04:46:51;;;;;;;17.20;16.40;;;22.60;1.00;;;;;;5087469;28;20261;-86
2023/08/25 04:49:22;;;;;;;15.70;14.90;;;22.70;1.00;;;;;;5081536;28;20558;-85
2023/08/25 04:51:51;;;;;;;16.47;15.60;;;22.70;1.00;;;;;;5079135;28;20208;-86
2023/08/25 04:54:24;;;;;;;16.30;15.50;;;22.70;1.00;;;;;;5079742;28;20454;-85
2023/08/25 04:56:56;;;;;;;16.60;15.60;;;22.70;1.00;;;;;;5079507;28;20442;-85
2023/08/25 04:59:28;;;;;;;15.95;15.10;;;22.70;1.00;;;;;;5086636;28;20481;-86
2023/08/25 05:02:00;;;;;;;16.47;15.30;;;22.70;1.00;;;;;;5080405;28;20654;-88
2023/08/25 05:04:36;;;;;;;15.57;15.00;;;22.70;1.00;;;;;;5078525;28;20446;-85
2023/08/25 05:07:05;;;;;;;15.77;15.00;;;22.80;1.00;;;;;;5078911;28;20718;-86
2023/08/25 05:09:42;;;;;;;16.63;15.70;;;22.70;1.00;;;;;;5083705;28;20271;-87
2023/08/25 05:12:10;;;;;;;16.10;15.50;;;22.80;1.00;;;;;;5078622;28;21010;-87
2023/08/25 05:14:51;;;;;;;16.27;15.67;;;22.70;1.00;;;;;;5083211;28;20914;-86
2023/08/25 05:17:22;;;;;;;16.83;15.93;;;22.80;1.00;;;;;;5078837;28;20554;-86
2023/08/25 05:19:52;;;;;;;16.60;15.60;;;22.80;1.00;;;;;;5077843;28;20493;-85
2023/08/25 05:22:26;;;;;;;17.10;16.27;;;22.80;1.00;;;;;;5080330;28;20454;-87
2023/08/25 05:24:57;;;;;;;16.37;15.73;;;22.90;1.00;;;;;;5077720;28;20445;-86
2023/08/25 05:27:29;;;;;;;15.93;15.43;;;22.90;1.00;;;;;;5078776;28;20494;-86
2023/08/25 05:30:03;;;;;;;16.87;16.07;;;23.00;99.90;;;;;;5078054;28;20561;-87
2023/08/25 05:32:40;;;;;;;17.10;16.30;;;23.00;99.90;;;;;;5078229;28;20561;-86
2023/08/25 05:35:10;;;;;;;16.50;15.90;;;23.00;99.90;;;;;;5075042;28;20462;-85
2023/08/25 05:37:44;;;;;;;16.13;15.40;;;23.20;99.90;;;;;;5098628;28;20473;-88
2023/08/25 05:40:13;;;;;;;16.43;15.70;;;23.10;99.90;;;;;;5075797;28;20474;-86
2023/08/25 05:42:42;;;;;;;18.20;16.87;;;23.10;99.90;;;;;;5079791;28;20974;-87
2023/08/25 05:45:14;;;;;;;17.03;16.23;;;23.20;99.90;;;;;;5076869;28;20521;-88
2023/08/25 05:47:46;;;;;;;16.13;15.53;;;23.30;99.90;;;;;;5077868;28;20454;-84
2023/08/25 05:50:14;;;;;;;16.53;15.83;;;23.30;99.90;;;;;;5079685;28;20466;-86
2023/08/25 05:52:47;;;;;;;16.50;15.97;;;23.30;99.90;;;;;;5075413;28;20886;-85
2023/08/25 05:55:16;;;;;;;17.07;16.27;;;23.20;99.90;;;;;;5079231;28;20462;-86
2023/08/25 05:57:45;;;;;;;16.73;16.13;;;23.30;1.00;;;;;;5074798;28;20446;-86
2023/08/25 06:00:20;;;;;;;17.33;16.53;;;23.30;1.00;;;;;;5077918;28;20469;-85
2023/08/25 06:02:53;;;;;;;16.83;16.23;;;23.30;1.00;;;;;;5076621;28;20453;-87
2023/08/25 06:05:23;;;;;;;16.63;15.93;;;23.30;1.00;;;;;;5074745;28;20460;-85
2023/08/25 06:07:55;;;;;;;16.80;16.10;;;23.30;1.00;;;;;;5075974;28;20454;-88
2023/08/25 06:10:29;;;;;;;17.03;16.30;;;23.30;1.00;;;;;;5079852;28;20466;-85
2023/08/25 06:13:00;;;;;;;18.38;17.50;;;23.30;1.00;;;;;;5080196;28;20476;-85
2023/08/25 06:15:30;;;;;;;17.33;16.57;;;23.30;1.00;;;;;;5080278;28;20192;-86
2023/08/25 06:18:07;;;;;;;18.10;16.87;;;23.30;99.90;;;;;;5080177;28;20446;-86
2023/08/25 06:20:42;;;;;;;18.00;17.00;;;23.20;94.90;;;;;;5078969;28;20473;-85
2023/08/25 06:23:14;;;;;;;17.98;17.15;;;23.10;1.00;;;;;;5080083;28;20454;-86
2023/08/25 06:25:45;;;;;;;17.83;16.93;;;23.20;99.90;;;;;;5078334;28;20210;-86
2023/08/25 06:28:17;;;;;;;17.03;16.43;;;23.20;99.90;;;;;;5083597;28;20466;-85
2023/08/25 06:31:00;;;;;;;17.43;16.73;;;23.20;99.90;;;;;;5076816;28;20479;-85
2023/08/25 06:33:31;;;;;;;17.03;16.43;;;23.20;99.90;;;;;;5076148;28;20654;-86
2023/08/25 06:36:00;;;;;;;16.50;15.90;;;23.10;99.90;;;;;;5080886;28;20465;-85
2023/08/25 06:38:32;;;;;;;17.90;17.00;;;23.20;99.90;;;;;;5077190;28;20443;-86
2023/08/25 06:41:23;;;;;;;17.47;16.40;;;23.10;99.90;;;;;;5078112;28;21008;-86
2023/08/25 06:43:57;;;;;;;17.30;16.40;;;23.10;1.00;;;;;;5078528;28;20433;-86
2023/08/25 06:46:29;;;;;;;16.48;15.98;;;23.10;1.00;;;;;;5078290;28;21048;-87
2023/08/25 06:48:59;;;;;;;17.60;17.00;;;23.10;1.00;;;;;;5080482;28;20259;-88
2023/08/25 06:51:35;;;;;;;17.77;16.88;;;23.10;1.00;;;;;;5079808;28;20478;-85
2023/08/25 06:54:07;;;;;;;16.80;16.13;;;23.00;99.90;;;;;;5078776;28;20691;-87
2023/08/25 06:56:39;;;;;;;16.77;16.07;;;23.10;1.00;;;;;;5077344;28;20773;-85
2023/08/25 06:59:13;;;;;;;17.73;16.85;;;23.10;1.00;;;;;;5077680;28;20441;-86
2023/08/25 07:01:49;;;;;;;17.83;16.93;;;23.00;1.00;;;;;;5080522;28;20211;-86
2023/08/25 07:04:19;;;;;;;16.93;16.23;;;23.00;1.00;;;;;;5077156;28;20964;-87
2023/08/25 07:06:50;;;;;;;17.53;16.73;;;22.90;1.00;;;;;;5081244;28;20446;-86
2023/08/25 07:09:19;;;;;;;16.93;16.20;;;23.00;1.00;;;;;;5079155;28;21077;-86
2023/08/25 07:11:51;;;;;;;17.23;16.52;;;22.90;99.90;;;;;;5083810;28;21004;-86
2023/08/25 07:14:27;;;;;;;17.17;16.47;;;22.80;99.90;;;;;;5084548;28;20200;-86
2023/08/25 07:17:00;;;;;;;16.90;16.00;;;22.80;99.90;;;;;;5079963;28;20498;-86
2023/08/25 07:19:31;;;;;;;16.95;16.25;;;22.90;41.00;;;;;;5089978;28;20495;-86
2023/08/25 07:22:06;;;;;;;17.90;17.03;;;22.80;1.00;;;;;;5083688;28;20242;-87
2023/08/25 07:24:43;;;;;;;19.02;17.95;;;22.80;99.90;;;;;;5084204;28;20810;-86
2023/08/25 07:27:14;;;;;;;18.57;17.67;;;22.70;99.90;;;;;;5075521;28;20598;-86
2023/08/25 07:29:43;;;;;;;17.13;16.20;;;22.80;1.00;;;;;;5083674;28;20487;-86
2023/08/25 07:32:16;;;;;;;17.20;16.40;;;22.80;99.90;;;;;;5076709;28;20986;-86
2023/08/25 07:34:47;;;;;;;17.47;16.47;;;22.80;1.00;;;;;;5080329;28;20450;-86
2023/08/25 07:37:22;;;;;;;17.00;16.30;;;22.70;1.00;;;;;;5081493;28;20473;-88
2023/08/25 07:39:54;;;;;;;17.53;16.70;;;22.60;99.90;;;;;;5081188;28;20461;-88
2023/08/25 07:42:27;;;;;;;17.03;16.33;;;22.50;1.00;;;;;;5079990;28;20442;-86
2023/08/25 07:44:56;;;;;;;17.23;16.43;;;22.50;99.90;;;;;;5082867;28;20454;-87
2023/08/25 07:47:30;;;;;;;16.90;16.10;;;22.40;1.00;;;;;;5080181;28;20949;-86
2023/08/25 07:50:08;;;;;;;17.25;16.17;;;22.40;1.00;;;;;;5086746;28;20527;-87
2023/08/25 07:52:38;;;;;;;18.30;17.50;;;22.40;99.90;;;;;;5084774;28;20231;-87
2023/08/25 07:55:08;;;;;;;16.47;15.73;;;22.40;1.00;;;;;;5080790;28;20450;-87
2023/08/25 07:57:37;;;;;;;19.73;18.80;;;22.40;1.00;;;;;;5079545;28;20454;-89
2023/08/25 08:00:16;;;;;;;15.83;15.33;;;22.40;1.00;;;;;;5077862;28;20975;-87
2023/08/25 08:02:51;;;;;;;16.53;15.83;;;22.40;6.30;;;;;;5080511;28;20990;-86
2023/08/25 08:05:22;;;;;;;16.07;15.40;;;22.40;1.00;;;;;;5077858;28;20877;-86
2023/08/25 08:07:59;;;;;;;16.10;15.50;;;22.40;91.20;;;;;;5079829;28;20506;-89
2023/08/25 08:10:29;;;;;;;16.60;16.00;;;22.40;99.90;;;;;;5078853;28;20465;-86
2023/08/25 08:13:00;;;;;;;16.23;15.63;;;22.50;99.90;;;;;;5081380;28;20572;-85
2023/08/25 08:15:36;;;;;;;15.73;15.18;;;22.50;1.00;;;;;;5081674;28;20469;-86
2023/08/25 08:18:07;;;;;;;16.90;16.10;;;22.50;99.90;;;;;;5080397;28;20579;-86
2023/08/25 08:20:48;;;;;;;17.27;16.45;;;22.40;99.90;;;;;;5078529;28;20459;-86
2023/08/25 08:23:21;;;;;;;15.90;15.40;;;22.40;1.00;;;;;;5080950;28;20683;-86
2023/08/25 08:25:58;;;;;;;16.90;16.30;;;22.40;1.00;;;;;;5077768;28;20211;-88
2023/08/25 08:28:31;;;;;;;16.30;15.73;;;22.40;99.90;;;;;;5079046;28;20468;-86
2023/08/25 08:31:18;;;;;;;17.57;16.80;;;22.30;1.00;;;;;;5078851;28;20463;-85
2023/08/25 08:33:54;;;;;;;16.77;16.15;;;22.20;99.90;;;;;;5081124;28;20483;-86
2023/08/25 08:36:23;;;;;;;17.00;16.20;;;22.10;67.60;;;;;;5080009;28;20206;-85
2023/08/25 08:39:07;;;;;;;16.80;16.20;;;22.20;1.00;;;;;;5078252;28;20537;-85
2023/08/25 08:41:45;;;;;;;17.70;17.00;;;22.10;99.90;;;;;;5075251;28;20466;-86
2023/08/25 08:44:16;;;;;;;17.80;17.00;;;22.10;1.00;;;;;;5074827;28;20864;-86
2023/08/25 08:46:50;;;;;;;17.10;16.40;;;22.00;99.90;;;;;;5074248;28;20809;-86
2023/08/25 08:49:26;;;;;;;17.43;16.60;;;21.90;1.00;;;;;;5080539;28;20469;-88
2023/08/25 08:51:59;;;;;;;16.70;16.00;;;21.90;76.20;;;;;;5079683;28;20552;-87
2023/08/25 08:54:35;;;;;;;18.20;16.80;;;21.90;99.90;;;;;;5078784;28;20451;-86
2023/08/25 08:57:14;;;;;;;17.53;16.90;;;22.00;1.00;;;;;;5080105;28;20457;-86
2023/08/25 08:59:47;;;;;;;17.20;16.50;;;22.20;28.90;;;;;;5078754;28;20474;-86
2023/08/25 09:02:17;;;;;;;17.60;16.80;;;22.20;99.90;;;;;;5078319;28;20550;-85
2023/08/25 09:04:57;;;;;;;17.30;16.30;;;22.20;1.00;;;;;;5078439;28;20441;-85
2023/08/25 09:07:36;;;;;;;17.43;16.50;;;22.20;99.90;;;;;;5080712;28;20947;-86
2023/08/25 09:10:10;;;;;;;17.43;16.67;;;21.90;99.90;;;;;;5076723;28;20477;-86
2023/08/25 09:12:44;;;;;;;17.10;16.50;;;22.00;1.00;;;;;;5077261;28;20477;-86
2023/08/25 09:15:27;;;;;;;17.13;16.42;;;21.90;99.90;;;;;;5081405;28;20454;-86
2023/08/25 09:18:03;;;;;;;16.60;15.90;;;21.90;99.90;;;;;;5078891;28;20367;-85
2023/08/25 09:20:38;;;;;;;18.42;17.23;;;22.10;1.00;;;;;;5073254;28;20497;-86
2023/08/25 09:23:13;;;;;;;17.33;16.63;;;22.10;1.00;;;;;;5079563;28;20208;-85
2023/08/25 09:25:44;;;;;;;17.63;16.60;;;22.20;40.40;;;;;;5078742;28;20467;-88
2023/08/25 09:28:16;;;;;;;16.75;16.15;;;22.20;1.00;;;;;;5081749;28;20197;-85
2023/08/25 09:30:52;;;;;;;17.00;16.35;;;22.20;1.00;;;;;;5077520;28;20252;-85
2023/08/25 09:33:25;;;;;;;17.13;16.33;;;22.30;1.00;;;;;;5080346;28;20220;-85
2023/08/25 09:36:11;;;;;;;17.03;16.33;;;22.40;1.00;;;;;;5077593;28;20459;-86
2023/08/25 09:38:50;;;;;;;18.10;17.20;;;22.40;1.00;;;;;;5080555;28;20447;-85
2023/08/25 09:41:30;;;;;;;17.93;17.13;;;22.30;99.90;;;;;;5078548;28;20214;-85
2023/08/25 09:43:59;;;;;;;17.17;16.47;;;22.40;99.90;;;;;;5087042;28;20466;-87
2023/08/25 09:46:30;;;;;;;17.17;16.57;;;22.50;99.90;;;;;;5080487;28;20468;-86
2023/08/25 09:49:04;;;;;;;16.67;16.07;;;22.60;99.90;;;;;;5081495;28;20520;-86
2023/08/25 09:51:43;;;;;;;18.80;18.00;;;22.80;99.90;;;;;;5077883;28;20449;-86
2023/08/25 09:54:16;;;;;;;17.47;16.77;;;22.90;1.00;;;;;;5097295;28;20486;-87
2023/08/25 09:56:46;;;;;;;18.30;17.33;;;23.00;99.90;;;;;;5078067;28;20515;-89
2023/08/25 09:59:18;;;;;;;16.80;16.17;;;23.00;1.00;;;;;;5079133;28;20466;-88
2023/08/25 10:01:51;;;;;;;17.30;16.70;;;23.10;40.60;;;;;;5083835;28;20524;-86
2023/08/25 10:04:26;;;;;;;17.10;16.40;;;23.00;67.20;;;;;;5081575;28;20450;-85
2023/08/25 10:07:01;;;;;;;16.90;16.30;;;23.00;23.80;;;;;;5080159;28;20677;-84
2023/08/25 10:09:36;;;;;;;17.43;16.73;;;23.00;99.90;;;;;;5076744;28;20868;-85
2023/08/25 10:12:10;;;;;;;16.90;16.30;;;23.00;99.90;;;;;;5081022;28;20448;-85
2023/08/25 10:14:42;;;;;;;16.97;16.27;;;23.10;32.90;;;;;;5081897;28;20270;-85
2023/08/25 10:17:16;;;;;;;16.90;16.20;;;23.10;99.90;;;;;;5076803;28;20442;-86
2023/08/25 10:19:56;;;;;;;17.00;16.40;;;23.10;1.00;;;;;;5079010;28;20257;-87
2023/08/25 10:22:37;;;;;;;16.37;15.73;;;23.10;1.00;;;;;;5074345;28;20458;-86
2023/08/25 10:25:10;;;;;;;16.90;16.20;;;23.20;99.90;;;;;;5077804;28;20454;-86
2023/08/25 10:27:42;;;;;;;16.93;16.33;;;23.10;99.90;;;;;;5083180;28;20461;-86
2023/08/25 10:30:17;;;;;;;17.47;16.77;;;23.00;99.90;;;;;;5078525;28;20472;-85
2023/08/25 10:32:51;;;;;;;17.10;16.40;;;22.80;99.90;;;;;;5080859;28;20446;-85
2023/08/25 10:35:45;;;;;;;16.63;16.03;;;22.80;1.00;;;;;;5075127;28;20485;-86
2023/08/25 10:38:39;;;;;;;16.50;15.90;;;22.80;99.90;;;;;;5080210;28;20443;-87
2023/08/25 10:41:20;;;;;;;17.13;16.43;;;22.80;1.00;;;;;;5082313;28;20494;-87
2023/08/25 10:43:53;;;;;;;17.50;16.73;;;22.90;99.90;;;;;;5081065;28;21085;-85
2023/08/25 10:46:29;;;;;;;17.47;16.57;;;22.80;1.00;;;;;;5085193;28;20445;-86
2023/08/25 10:49:25;;;;;;;16.83;16.13;;;22.90;1.00;;;;;;5081811;28;20459;-86
2023/08/25 10:52:13;;;;;;;16.90;16.30;;;22.90;1.00;;;;;;5080500;28;20446;-86
2023/08/25 10:54:49;;;;;;;17.20;16.43;;;22.90;99.90;;;;;;5082913;28;20481;-86
2023/08/25 10:57:40;;;;;;;17.47;16.67;;;22.90;99.90;;;;;;5079838;28;20456;-87
2023/08/25 11:00:27;;;;;;;18.37;17.67;;;23.00;99.90;;;;;;5083620;28;20470;-88
2023/08/25 11:02:59;;;;;;;17.27;16.60;;;23.20;99.90;;;;;;5084296;28;20883;-85
2023/08/25 11:05:44;;;;;;;17.63;16.93;;;23.10;1.00;;;;;;5080704;28;20965;-85
2023/08/25 11:08:29;;;;;;;17.10;16.50;;;23.20;99.90;;;;;;5079262;28;20456;-86
2023/08/25 11:11:22;;;;;;;17.67;16.97;;;23.20;1.00;;;;;;5084673;28;20466;-84
2023/08/25 11:13:56;;;;;;;17.03;16.43;;;23.10;1.00;;;;;;5080017;28;20474;-85
2023/08/25 11:16:24;;;;;;;17.90;17.10;;;23.10;1.00;;;;;;5084239;28;20494;-86
2023/08/25 11:19:04;;;;;;;17.63;16.93;;;23.20;99.90;;;;;;5081036;28;20458;-86
2023/08/25 11:21:36;;;;;;;18.00;17.20;;;23.30;1.00;;;;;;5080683;28;20447;-86
2023/08/25 11:24:23;;;;;;;17.93;17.13;;;23.40;1.00;;;;;;5081319;28;20455;-85
2023/08/25 11:27:03;;;;;;;17.37;16.67;;;23.50;99.90;;;;;;5085033;28;20829;-85
2023/08/25 11:29:33;;;;;;;18.17;17.40;;;23.60;1.00;;;;;;5080736;28;20525;-86
2023/08/25 11:32:11;;;;;;;18.63;17.93;;;23.50;1.00;;;;;;5078453;28;20442;-85
2023/08/25 11:34:49;;;;;;;17.60;16.90;;;23.60;99.90;;;;;;5089928;28;20485;-86
2023/08/25 11:37:23;;;;;;;18.10;17.30;;;23.60;1.00;;;;;;5081012;28;20454;-86
2023/08/25 11:39:56;;;;;;;19.80;18.70;;;23.70;1.00;;;;;;5083203;28;20534;-87
2023/08/25 11:42:31;;;;;;;17.90;17.20;;;23.80;99.90;;;;;;5080691;28;20454;-86
2023/08/25 11:45:13;;;;;;;19.40;18.50;;;23.70;1.00;;;;;;5078796;28;20893;-86
2023/08/25 11:47:41;;;;;;;18.40;17.47;;;23.70;99.90;;;;;;5080558;28;20453;-86
2023/08/25 11:50:11;;;;;;;18.03;17.23;;;23.70;1.00;;;;;;5078611;28;20461;-86
2023/08/25 11:52:44;;;;;;;18.23;17.50;;;23.70;99.90;;;;;;5079111;28;20480;-85
2023/08/25 11:55:16;;;;;;;18.45;17.70;;;23.70;99.90;;;;;;5082959;28;20804;-85
2023/08/25 11:57:54;;;;;;;18.47;17.73;;;23.90;1.00;;;;;;5082475;28;20204;-86
2023/08/25 12:00:28;;;;;;;18.37;17.50;;;24.10;99.90;;;;;;5082237;28;20469;-84
2023/08/25 12:03:00;;;;;;;18.23;17.53;;;24.20;1.00;;;;;;5081795;28;20480;-85
2023/08/25 12:05:35;;;;;;;18.53;17.67;;;24.20;1.00;;;;;;5078896;28;20443;-86
2023/08/25 12:08:06;;;;;;;18.80;17.90;;;24.40;99.90;;;;;;5079058;28;20448;-86
2023/08/25 12:10:39;;;;;;;18.87;18.07;;;24.40;99.90;;;;;;5077234;28;20474;-86
2023/08/25 12:13:14;;;;;;;18.53;17.50;;;24.30;1.00;;;;;;5083857;28;20441;-86
2023/08/25 12:15:50;;;;;;;17.98;17.35;;;24.30;1.00;;;;;;5084987;28;20473;-86
2023/08/25 12:18:23;;;;;;;19.17;18.03;;;24.30;16.90;;;;;;5081451;28;20211;-87
2023/08/25 12:20:59;;;;;;;17.77;17.00;;;24.20;99.90;;;;;;5079604;28;21152;-85
2023/08/25 12:23:35;;;;;;;18.23;17.60;;;24.10;99.90;;;;;;5081281;28;20470;-84
2023/08/25 12:26:11;;;;;;;18.43;17.63;;;24.20;1.00;;;;;;5080144;28;20454;-85
2023/08/25 12:28:45;;;;;;;18.60;17.67;;;24.20;99.90;;;;;;5080376;28;20457;-87
2023/08/25 12:31:14;;;;;;;18.40;17.40;;;24.20;99.90;;;;;;5085190;28;20470;-85
2023/08/25 12:33:45;;;;;;;18.63;17.80;;;24.20;27.00;;;;;;5079104;28;20491;-86
2023/08/25 12:36:15;;;;;;;17.47;16.57;;;24.20;99.90;;;;;;5080637;28;20511;-86
2023/08/25 12:38:45;;;;;;;18.07;17.20;;;24.20;1.00;;;;;;5080238;28;20459;-86
2023/08/25 12:41:16;;;;;;;18.30;17.50;;;24.30;1.00;;;;;;5079011;28;20474;-86
2023/08/25 12:43:49;;;;;;;17.37;16.67;;;24.30;58.10;;;;;;5083452;28;20232;-86
2023/08/25 12:46:25;;;;;;;18.10;17.27;;;24.30;38.50;;;;;;5080594;28;20464;-85
2023/08/25 12:49:00;;;;;;;18.10;17.30;;;24.40;1.00;;;;;;5078687;28;20500;-87
2023/08/25 12:51:31;;;;;;;17.63;16.83;;;24.40;1.00;;;;;;5075267;28;20516;-85
2023/08/25 12:54:17;;;;;;;17.97;17.13;;;24.50;1.00;;;;;;5077214;28;20512;-88
2023/08/25 12:56:46;;;;;;;18.60;17.60;;;24.60;1.00;;;;;;5081066;28;20442;-86
2023/08/25 12:59:19;;;;;;;17.77;16.97;;;24.60;1.00;;;;;;5078292;28;20458;-89
2023/08/25 13:01:52;;;;;;;18.30;17.40;;;24.70;99.90;;;;;;5077799;28;20441;-86
2023/08/25 13:04:21;;;;;;;18.37;17.27;;;24.60;99.90;;;;;;5079670;28;20516;-86
2023/08/25 13:06:57;;;;;;;18.30;17.50;;;24.60;99.90;;;;;;5081513;28;20454;-86